Time;durP1;ratioP1;P1;durP2;ratioP2;P2;SDS_P1;SDS_P2;PMS_P1;PMS_P2;Temp;Humidity;BMP_temperature;BMP_pressure;BME280_temperature;BME280_humidity;BME280_pressure;Samples;Min_cycle;Max_cycle;Signal;HPM_P1;HPM_P2
2023/06/04 00:01:40;;;;;;;;;8.33;7.67;;;;;18.97;63.65;100065.47;5047401;28;45538;-79
2023/06/04 00:04:06;;;;;;;;;8.00;7.00;;;;;19.11;63.49;100087.34;5045459;28;45471;-79
2023/06/04 00:06:31;;;;;;;;;7.33;7.00;;;;;19.11;64.34;100099.72;5047194;28;45423;-81
2023/06/04 00:08:57;;;;;;;;;8.00;8.00;;;;;19.00;64.41;100095.41;5050870;28;45231;-81
2023/06/04 00:11:22;;;;;;;;;6.67;6.00;;;;;19.00;64.26;100090.13;5049537;28;45566;-79
2023/06/04 00:13:48;;;;;;;;;7.00;6.00;;;;;19.01;64.58;100089.22;5043887;28;45618;-81
2023/06/04 00:16:14;;;;;;;;;8.00;6.33;;;;;19.01;64.63;100101.59;5047842;28;46084;-80
2023/06/04 00:18:39;;;;;;;;;6.67;6.00;;;;;18.79;65.08;100085.03;5045703;28;45474;-80
2023/06/04 00:21:05;;;;;;;;;9.33;8.33;;;;;18.79;65.28;100099.19;5050221;28;45523;-81
2023/06/04 00:23:30;;;;;;;;;8.67;7.33;;;;;18.64;66.22;100080.78;5042853;28;45380;-81
2023/06/04 00:25:56;;;;;;;;;7.33;7.33;;;;;18.46;65.50;100050.09;5048338;28;45430;-78
2023/06/04 00:28:21;;;;;;;;;7.00;6.67;;;;;18.77;66.50;100102.72;5046835;28;46971;-80
2023/06/04 00:30:47;;;;;;;;;7.33;7.33;;;;;18.75;66.71;100097.44;5045709;28;45602;-79
2023/06/04 00:33:12;;;;;;;;;9.33;9.33;;;;;18.58;67.09;100079.09;5047158;28;45777;-81
2023/06/04 00:35:38;;;;;;;;;8.00;8.00;;;;;18.73;66.54;100095.69;5048749;28;45495;-79
2023/06/04 00:38:03;;;;;;;;;6.33;5.67;;;;;18.34;66.54;100034.38;5047130;28;45481;-80
2023/06/04 00:40:29;;;;;;;;;10.00;8.00;;;;;18.51;66.92;100090.63;5043646;28;45438;-81
2023/06/04 00:42:55;;;;;;;;;8.33;8.33;;;;;18.37;67.60;100080.19;5048623;28;46195;-79
2023/06/04 00:45:21;;;;;;;;;8.33;7.67;;;;;18.36;66.89;100078.41;5043372;28;45521;-79
2023/06/04 00:47:47;;;;;;;;;8.67;8.67;;;;;18.36;67.31;100080.19;5054678;28;45527;-77
2023/06/04 00:50:13;;;;;;;;;6.33;5.67;;;;;18.27;67.83;100070.56;5038103;28;45367;-78
2023/06/04 00:52:39;;;;;;;;;10.67;9.67;;;;;18.04;68.24;100047.84;5050038;28;45486;-81
2023/06/04 00:55:05;;;;;;;;;8.75;8.00;;;;;18.06;68.49;100050.47;5043127;28;45362;-81
2023/06/04 00:57:31;;;;;;;;;9.33;8.67;;;;;18.27;68.24;100076.72;5049305;28;45393;-79
2023/06/04 00:59:56;;;;;;;;;9.67;8.00;;;;;18.28;68.00;100072.31;5047590;28;45450;-81
2023/06/04 01:02:24;;;;;;;;;11.67;9.33;;;;;18.29;67.50;100068.78;5034455;28;45470;-82
2023/06/04 01:05:02;;;;;;;;;8.50;8.25;;;;;18.34;67.91;100082.84;5052711;28;45303;-81
2023/06/04 01:07:30;;;;;;;;;9.33;7.33;;;;;18.33;67.81;100080.22;5048021;28;45477;-82
2023/06/04 01:09:56;;;;;;;;;8.00;7.00;;;;;18.34;67.22;100069.59;5049193;28;45408;-78
2023/06/04 01:12:23;;;;;;;;;10.33;8.67;;;;;18.28;67.76;100072.31;5046899;28;45684;-81
2023/06/04 01:14:48;;;;;;;;;10.00;8.50;;;;;18.24;68.07;100067.94;5043439;28;45272;-80
2023/06/04 01:17:36;;;;;;;;;10.33;9.33;;;;;18.26;68.08;100080.28;5050210;28;45676;-81
2023/06/04 01:20:14;;;;;;;;;9.67;9.67;;;;;18.26;68.00;100082.03;5045103;28;45306;-78
2023/06/04 01:22:56;;;;;;;;;9.33;9.00;;;;;18.27;67.70;100079.38;5044432;28;46113;-79
2023/06/04 01:25:43;;;;;;;;;8.67;8.67;;;;;18.24;67.36;100078.53;5047860;28;45358;-79
2023/06/04 01:28:12;;;;;;;;;11.00;8.67;;;;;18.09;68.08;100061.03;5050412;28;45424;-80
2023/06/04 01:30:45;;;;;;;;;8.00;8.00;;;;;18.24;67.48;100086.44;5043661;28;45437;-78
2023/06/04 01:33:12;;;;;;;;;8.67;8.00;;;;;18.22;68.31;100086.50;5029965;28;45810;-79
2023/06/04 01:35:38;;;;;;;;;8.67;8.33;;;;;18.17;67.74;100084.78;5048740;28;45365;-79
2023/06/04 01:38:04;;;;;;;;;7.67;7.67;;;;;18.19;67.41;100089.16;5028203;28;45621;-79
2023/06/04 01:40:30;;;;;;;;;7.67;7.33;;;;;18.11;67.17;100066.31;5044350;28;45411;-80
2023/06/04 01:42:56;;;;;;;;;9.00;8.00;;;;;18.25;66.80;100082.94;5047545;28;46614;-81
2023/06/04 01:45:23;;;;;;;;;7.67;7.67;;;;;18.17;66.78;100060.97;5029256;28;45747;-79
2023/06/04 01:47:49;;;;;;;;;9.33;9.33;;;;;18.23;66.88;100075.00;5042560;28;45579;-80
2023/06/04 01:50:16;;;;;;;;;6.33;6.00;;;;;18.17;66.80;100069.78;5036999;28;45426;-81
2023/06/04 01:52:42;;;;;;;;;7.67;7.00;;;;;18.26;66.63;100075.00;5046531;28;45457;-81
2023/06/04 01:55:11;;;;;;;;;8.00;7.00;;;;;18.04;66.50;100016.13;5044031;28;45524;-81
2023/06/04 01:57:38;;;;;;;;;8.67;8.00;;;;;18.37;66.37;100063.44;5049184;28;45472;-81
2023/06/04 02:00:07;;;;;;;;;9.00;9.00;;;;;18.25;66.66;100045.91;5049309;28;45421;-79
2023/06/04 02:02:33;;;;;;;;;7.33;7.33;;;;;18.26;66.89;100056.50;5023681;28;48104;-80
2023/06/04 02:04:58;;;;;;;;;7.67;7.67;;;;;18.22;67.08;100056.50;5034462;28;45669;-79
2023/06/04 02:07:25;;;;;;;;;7.67;7.67;;;;;18.05;67.66;100036.41;5048903;28;45412;-78
2023/06/04 02:09:51;;;;;;;;;8.67;8.67;;;;;18.06;67.46;100045.19;5051540;28;45457;-78
2023/06/04 02:12:17;;;;;;;;;10.67;10.00;;;;;18.11;67.80;100061.03;5057219;28;45385;-80
2023/06/04 02:14:44;;;;;;;;;8.67;6.67;;;;;17.98;68.07;100042.63;5048497;28;45473;-81
2023/06/04 02:17:12;;;;;;;;;7.33;7.00;;;;;18.03;67.46;100048.75;5051693;28;45531;-78
2023/06/04 02:19:45;;;;;;;;;9.67;9.00;;;;;17.79;68.34;100025.16;5049367;28;45489;-78
2023/06/04 02:22:14;;;;;;;;;10.00;9.67;;;;;17.79;68.58;100047.16;5044360;28;45363;-78
2023/06/04 02:24:42;;;;;;;;;7.33;6.67;;;;;17.69;68.27;100033.13;5028815;28;45567;-78
2023/06/04 02:27:11;;;;;;;;;8.33;6.33;;;;;17.67;68.30;100016.41;5041075;28;45784;-78
2023/06/04 02:29:39;;;;;;;;;9.00;8.67;;;;;17.75;68.31;100034.00;5053279;28;45504;-78
2023/06/04 02:32:05;;;;;;;;;8.67;8.00;;;;;17.65;69.58;100028.75;5044601;28;45556;-78
2023/06/04 02:34:30;;;;;;;;;10.00;9.33;;;;;17.29;70.03;100001.72;5052644;28;45441;-78
2023/06/04 02:36:57;;;;;;;;;8.67;8.00;;;;;17.46;69.91;100035.91;5050304;28;45528;-78
2023/06/04 02:39:22;;;;;;;;;8.33;7.33;;;;;17.38;70.47;100024.53;5044388;28;45538;-77
2023/06/04 02:41:48;;;;;;;;;10.33;10.00;;;;;17.18;70.70;99998.25;5049555;28;45949;-78
2023/06/04 02:44:13;;;;;;;;;10.00;9.00;;;;;17.34;70.71;100033.34;5048091;28;45287;-77
2023/06/04 02:46:39;;;;;;;;;9.67;9.00;;;;;17.36;70.69;100026.31;5047771;28;45406;-78
2023/06/04 02:49:05;;;;;;;;;9.00;9.00;;;;;17.29;70.34;100017.56;5047797;28;45763;-78
2023/06/04 02:51:31;;;;;;;;;9.33;9.00;;;;;17.38;70.20;100027.16;5048693;28;45487;-78
2023/06/04 02:53:56;;;;;;;;;9.00;9.00;;;;;17.30;70.25;100021.06;5041299;28;45684;-78
2023/06/04 02:56:22;;;;;;;;;8.33;8.00;;;;;17.28;69.79;100012.28;5053013;28;45449;-78
2023/06/04 02:58:55;;;;;;;;;8.00;7.67;;;;;17.35;69.80;100040.41;5050562;28;45514;-77
2023/06/04 03:01:24;;;;;;;;;7.33;7.33;;;;;17.36;69.13;100030.72;5049723;28;45507;-78
2023/06/04 03:03:51;;;;;;;;;7.00;7.00;;;;;17.32;68.82;100016.66;5037030;28;45406;-78
2023/06/04 03:06:20;;;;;;;;;7.00;7.00;;;;;17.41;69.52;100047.41;5052582;28;45418;-78
2023/06/04 03:08:46;;;;;;;;;8.00;8.00;;;;;17.35;69.46;100040.41;5050439;28;45496;-77
2023/06/04 03:11:11;;;;;;;;;8.33;7.00;;;;;17.23;70.05;100029.91;5058285;28;45426;-78
2023/06/04 03:13:38;;;;;;;;;8.67;8.00;;;;;17.34;69.37;100043.91;5058499;28;45418;-78
2023/06/04 03:16:09;;;;;;;;;7.33;7.00;;;;;17.30;69.92;100037.78;5058801;28;45187;-78
2023/06/04 03:18:36;;;;;;;;;9.33;8.00;;;;;17.16;70.08;100022.91;5058584;28;45480;-78
2023/06/04 03:21:02;;;;;;;;;10.33;8.33;;;;;17.27;69.85;100034.31;5057953;28;46052;-78
2023/06/04 03:23:27;;;;;;;;;7.67;7.33;;;;;16.98;69.96;99981.66;5057492;28;45466;-77
2023/06/04 03:25:53;;;;;;;;;8.67;8.00;;;;;17.27;70.05;100019.34;5058782;28;45530;-77
2023/06/04 03:28:18;;;;;;;;;7.00;6.33;;;;;17.25;69.25;100007.03;5058577;28;45662;-78
2023/06/04 03:30:44;;;;;;;;;8.00;7.67;;;;;17.41;69.27;100028.94;5058461;28;45655;-78
2023/06/04 03:33:09;;;;;;;;;9.00;8.33;;;;;17.43;69.66;100027.16;5058650;28;45291;-78
2023/06/04 03:35:35;;;;;;;;;7.33;6.00;;;;;17.46;69.61;100037.69;5057892;28;45644;-78
2023/06/04 03:38:00;;;;;;;;;6.67;6.67;;;;;17.48;69.23;100038.56;5042464;28;45498;-77
2023/06/04 03:40:26;;;;;;;;;8.00;7.00;;;;;17.52;68.66;100026.22;5035879;28;47930;-78
2023/06/04 03:42:51;;;;;;;;;8.00;8.00;;;;;17.47;68.67;100010.41;5044399;28;46042;-78
2023/06/04 03:45:17;;;;;;;;;8.00;8.00;;;;;17.43;68.18;99991.06;5058301;28;45317;-78
2023/06/04 03:47:43;;;;;;;;;7.67;7.00;;;;;17.63;68.05;100027.91;5035925;28;45489;-77
2023/06/04 03:50:09;;;;;;;;;7.00;7.00;;;;;17.51;68.49;100014.78;5037898;28;46588;-78
2023/06/04 03:52:35;;;;;;;;;8.33;8.33;;;;;17.47;68.64;100011.28;5038017;28;45390;-77
2023/06/04 03:55:01;;;;;;;;;8.00;8.00;;;;;17.56;68.42;100023.53;5036777;28;45304;-78
2023/06/04 03:57:26;;;;;;;;;7.67;7.33;;;;;17.47;68.66;100013.06;5024030;28;45630;-77
2023/06/04 03:59:52;;;;;;;;;7.00;5.67;;;;;17.50;68.25;100023.56;5047131;28;46834;-77
2023/06/04 04:02:18;;;;;;;;;6.00;6.00;;;;;17.33;68.43;99986.75;5049392;28;45607;-78
2023/06/04 04:04:44;;;;;;;;;8.33;7.33;;;;;17.56;68.42;100030.59;5040770;28;45715;-77
2023/06/04 04:07:10;;;;;;;;;8.33;6.33;;;;;17.46;68.34;100022.72;5038873;28;45303;-77
2023/06/04 04:09:36;;;;;;;;;7.00;6.00;;;;;17.54;68.35;100033.22;5057213;28;45449;-78
2023/06/04 04:12:02;;;;;;;;;6.67;6.33;;;;;17.53;68.41;100033.22;5057457;28;45421;-77
2023/06/04 04:14:28;;;;;;;;;8.33;6.33;;;;;17.49;68.28;100037.69;5056820;28;45591;-80
2023/06/04 04:16:53;;;;;;;;;7.00;6.67;;;;;17.35;68.86;100029.84;5036015;28;45337;-78
2023/06/04 04:19:20;;;;;;;;;8.00;6.67;;;;;17.38;68.66;100034.22;5040441;28;45474;-80
2023/06/04 04:21:48;;;;;;;;;11.00;9.00;;;;;17.42;68.95;100043.88;5043378;28;45439;-80
2023/06/04 04:24:35;;;;;;;;;9.00;9.00;;;;;17.08;68.62;99983.38;5046084;28;45475;-80
2023/06/04 04:27:03;;;;;;;;;8.00;7.67;;;;;17.23;68.66;100014.06;5040295;28;45437;-81
2023/06/04 04:29:32;;;;;;;;;7.67;7.33;;;;;17.39;68.94;100047.44;5050546;28;45607;-81
2023/06/04 04:32:09;;;;;;;;;8.00;7.67;;;;;17.30;69.84;100045.69;5034104;28;45437;-81
2023/06/04 04:34:37;;;;;;;;;8.00;7.00;;;;;17.08;69.70;100025.59;5052351;28;45366;-80
2023/06/04 04:37:03;;;;;;;;;7.33;7.33;;;;;17.25;69.59;100050.13;5038969;28;45688;-81
2023/06/04 04:39:29;;;;;;;;;9.00;8.00;;;;;17.18;69.90;100039.63;5056728;28;45439;-81
2023/06/04 04:41:55;;;;;;;;;7.00;7.00;;;;;17.22;70.20;100054.56;5035395;28;45378;-81
2023/06/04 04:44:20;;;;;;;;;8.00;7.00;;;;;17.00;69.78;100014.19;5037134;28;45544;-81
2023/06/04 04:46:48;;;;;;;;;11.00;8.33;;;;;17.25;70.05;100049.28;5019116;28;45748;-81
2023/06/04 04:49:13;;;;;;;;;11.00;10.00;;;;;17.22;69.41;100049.28;5035388;28;45634;-80
2023/06/04 04:51:39;;;;;;;;;8.67;8.33;;;;;17.19;69.67;100029.06;5052367;28;45526;-81
2023/06/04 04:54:05;;;;;;;;;8.00;7.00;;;;;17.38;69.28;100058.00;5043170;28;45508;-80
2023/06/04 04:56:34;;;;;;;;;8.00;8.00;;;;;17.24;69.04;100021.09;5038505;28;45614;-78
2023/06/04 04:59:00;;;;;;;;;8.33;7.00;;;;;17.37;68.80;100043.91;5057154;28;46005;-80
2023/06/04 05:01:26;;;;;;;;;9.33;7.00;;;;;17.44;68.35;100045.63;5056171;28;45782;-81
2023/06/04 05:03:52;;;;;;;;;10.00;9.00;;;;;17.53;68.31;100044.69;5040968;28;45420;-81
2023/06/04 05:06:17;;;;;;;;;8.00;7.33;;;;;17.47;68.34;100042.97;5052386;28;45302;-80
2023/06/04 05:08:43;;;;;;;;;7.67;6.00;;;;;17.51;68.04;100030.63;5023912;28;46666;-78
2023/06/04 05:11:09;;;;;;;;;8.67;7.00;;;;;17.58;67.63;100032.31;5038390;28;45378;-81
2023/06/04 05:13:34;;;;;;;;;7.00;6.67;;;;;17.85;67.62;100070.91;5034875;28;45505;-81
2023/06/04 05:16:06;;;;;;;;;7.67;7.00;;;;;17.89;67.41;100074.41;5018499;28;45513;-81
2023/06/04 05:18:33;;;;;;;;;7.33;7.33;;;;;17.78;67.67;100048.03;5037233;28;45602;-79
2023/06/04 05:21:02;;;;;;;;;6.67;6.67;;;;;17.99;67.09;100065.53;5038189;28;45351;-81
2023/06/04 05:23:34;;;;;;;;;8.00;7.00;;;;;17.93;66.88;100044.44;5056866;28;45319;-81
2023/06/04 05:26:01;;;;;;;;;7.33;7.33;;;;;18.07;66.58;100052.25;5052504;28;45819;-81
2023/06/04 05:28:27;;;;;;;;;10.33;8.00;;;;;18.23;65.97;100050.34;5042530;28;45993;-81
2023/06/04 05:30:58;;;;;;;;;9.67;9.67;;;;;18.19;66.18;100060.06;5037660;28;45474;-81
2023/06/04 05:33:25;;;;;;;;;6.33;6.33;;;;;18.15;66.30;100054.84;5022015;28;45480;-78
2023/06/04 05:35:51;;;;;;;;;8.67;8.67;;;;;18.07;66.64;100039.91;5038085;28;45719;-82
2023/06/04 05:38:20;;;;;;;;;8.33;7.33;;;;;18.37;66.55;100072.25;5047630;28;45528;-82
2023/06/04 05:40:46;;;;;;;;;9.00;7.33;;;;;18.64;66.00;100092.25;5036025;28;45535;-81
2023/06/04 05:43:12;;;;;;;;;7.00;6.67;;;;;18.82;65.36;100090.31;5034303;28;45489;-82
2023/06/04 05:45:37;;;;;;;;;8.00;7.67;;;;;18.76;65.03;100056.84;5054740;28;45338;-80
2023/06/04 05:48:04;;;;;;;;;7.00;6.67;;;;;18.84;64.68;100055.03;5042901;28;45549;-80
2023/06/04 05:50:30;;;;;;;;;7.67;7.67;;;;;19.05;64.57;100074.19;5051552;28;45540;-82
2023/06/04 05:52:56;;;;;;;;;8.00;7.00;;;;;19.17;64.18;100071.38;5039917;28;45324;-80
2023/06/04 05:55:22;;;;;;;;;8.33;7.33;;;;;19.41;63.71;100083.41;5047118;28;45486;-82
2023/06/04 05:57:48;;;;;;;;;8.67;6.67;;;;;19.46;63.38;100067.47;5055711;28;46089;-81
2023/06/04 06:00:15;;;;;;;;;8.00;8.00;;;;;19.66;63.11;100099.84;5038127;28;45522;-81
2023/06/04 06:02:40;;;;;;;;;7.00;7.00;;;;;19.41;63.09;100064.88;5038174;28;45497;-79
2023/06/04 06:05:09;;;;;;;;;7.67;7.67;;;;;19.74;62.83;100109.50;5049959;28;45410;-80
2023/06/04 06:07:35;;;;;;;;;9.33;8.33;;;;;19.65;62.91;100090.13;5024873;28;47700;-78
2023/06/04 06:10:02;;;;;;;;;7.33;6.67;;;;;19.60;62.89;100054.03;5043724;28;45624;-80
2023/06/04 06:12:28;;;;;;;;;8.67;8.00;;;;;19.97;62.68;100110.00;5047661;28;45284;-81
2023/06/04 06:14:53;;;;;;;;;9.33;8.00;;;;;19.98;62.53;100106.47;5037975;28;45403;-80
2023/06/04 06:17:19;;;;;;;;;6.00;6.00;;;;;19.96;62.73;100110.91;5053236;28;47155;-81
2023/06/04 06:19:44;;;;;;;;;8.00;8.00;;;;;19.99;62.26;100089.66;5039399;28;45433;-81
2023/06/04 06:22:10;;;;;;;;;7.00;7.00;;;;;20.21;61.61;100113.16;5042770;28;45475;-77
2023/06/04 06:24:36;;;;;;;;;6.33;6.33;;;;;20.21;61.55;100097.25;5037396;28;45449;-81
2023/06/04 06:27:01;;;;;;;;;7.00;7.00;;;;;20.11;60.98;100048.81;5043646;28;46110;-78
2023/06/04 06:29:27;;;;;;;;;5.00;5.00;;;;;20.36;61.24;100098.78;5025722;28;45606;-81
2023/06/04 06:31:52;;;;;;;;;7.00;7.00;;;;;20.58;61.09;100124.03;5050028;28;45513;-78
2023/06/04 06:34:18;;;;;;;;;7.33;6.67;;;;;20.59;61.21;100127.59;5049907;28;45655;-79
2023/06/04 06:36:44;;;;;;;;;28.25;27.75;;;;;20.46;60.99;100106.53;5047953;28;45896;-81
2023/06/04 06:39:10;;;;;;;;;11.00;10.00;;;;;20.62;60.73;100109.84;5037612;28;45487;-81
2023/06/04 06:41:38;;;;;;;;;8.00;7.00;;;;;20.53;60.81;100085.22;5055222;28;45486;-82
2023/06/04 06:44:04;;;;;;;;;7.00;7.00;;;;;20.72;60.42;100134.44;5045553;28;45399;-81
2023/06/04 06:46:29;;;;;;;;;7.67;5.00;;;;;20.85;60.79;100133.31;5039789;28;46170;-83
2023/06/04 06:48:55;;;;;;;;;6.67;6.67;;;;;21.03;60.77;100128.56;5056700;28;45561;-80
2023/06/04 06:51:20;;;;;;;;;8.00;7.00;;;;;21.16;60.38;100129.16;5050656;28;45528;-81
2023/06/04 06:53:46;;;;;;;;;9.00;8.67;;;;;21.35;60.86;100129.69;5050619;28;45655;-82
2023/06/04 06:56:14;;;;;;;;;8.00;8.00;;;;;21.75;59.31;100099.59;5049495;28;45292;-81
2023/06/04 06:58:40;;;;;;;;;8.00;6.67;;;;;22.21;57.75;100102.00;5034409;28;45468;-81
2023/06/04 07:01:06;;;;;;;;;6.33;6.33;;;;;23.05;56.30;100119.38;5049681;28;45278;-80
2023/06/04 07:03:31;;;;;;;;;9.00;7.33;;;;;24.60;52.73;100127.91;5039340;28;45378;-82
2023/06/04 07:05:57;;;;;;;;;8.00;7.00;;;;;25.97;51.02;100136.22;5052863;28;45359;-81
2023/06/04 07:08:23;;;;;;;;;7.00;7.00;;;;;28.12;46.32;100136.53;5048835;28;45558;-81
2023/06/04 07:10:48;;;;;;;;;7.67;7.33;;;;;30.33;41.66;100129.22;5042704;28;45425;-81
2023/06/04 07:13:14;;;;;;;;;7.00;7.00;;;;;32.07;37.91;100126.53;5037418;28;45462;-79
2023/06/04 07:15:39;;;;;;;;;9.00;8.00;;;;;33.59;37.30;100141.34;5044748;28;46282;-80
2023/06/04 07:18:05;;;;;;;;;7.67;7.67;;;;;34.72;32.33;100123.88;5030405;28;45348;-78
2023/06/04 07:20:31;;;;;;;;;8.67;8.00;;;;;35.23;32.20;100130.75;5051229;28;45568;-79
2023/06/04 07:22:56;;;;;;;;;7.00;7.00;;;;;36.11;33.43;100137.22;5044259;28;45515;-79
2023/06/04 07:25:23;;;;;;;;;9.67;8.33;;;;;35.43;30.70;100116.41;5048910;28;46501;-78
2023/06/04 07:27:52;;;;;;;;;10.33;10.33;;;;;34.14;33.97;100142.75;5049955;28;45571;-81
2023/06/04 07:30:18;;;;;;;;;9.00;8.33;;;;;33.59;35.80;100133.22;5046720;28;45567;-82
2023/06/04 07:32:50;;;;;;;;;10.00;10.00;;;;;34.76;33.43;100132.63;5050303;28;45350;-80
2023/06/04 07:35:16;;;;;;;;;6.33;6.33;;;;;35.69;32.93;100131.63;5045170;28;47387;-80
2023/06/04 07:37:44;;;;;;;;;5.00;5.00;;;;;35.04;32.57;100118.63;5024086;28;45431;-81
2023/06/04 07:40:10;;;;;;;;;10.67;9.67;;;;;34.43;33.94;100135.09;5041862;28;45477;-80
2023/06/04 07:42:36;;;;;;;;;12.00;12.00;;;;;33.94;34.07;100111.66;5051526;28;45405;-82
2023/06/04 07:45:02;;;;;;;;;11.33;10.67;;;;;34.90;33.24;100143.28;5048156;28;45319;-80
2023/06/04 07:47:28;;;;;;;;;14.33;13.33;;;;;35.41;32.26;100085.81;5052618;28;45353;-81
2023/06/04 07:49:53;;;;;;;;;14.33;14.33;;;;;36.76;31.58;100135.38;5032781;28;45351;-81
2023/06/04 07:52:19;;;;;;;;;14.33;14.00;;;;;36.99;31.62;100141.53;5049708;28;45496;-79
2023/06/04 07:54:44;;;;;;;;;20.00;16.00;;;;;37.93;29.23;100142.25;5045067;28;45888;-80
2023/06/04 07:57:10;;;;;;;;;15.67;15.67;;;;;39.28;28.26;100139.59;5038073;28;45542;-81
2023/06/04 07:59:36;;;;;;;;;16.00;15.67;;;;;40.30;26.34;100148.69;5047804;28;45666;-80
2023/06/04 08:02:01;;;;;;;;;15.00;13.67;;;;;40.36;27.77;100139.91;5046778;28;45516;-80
2023/06/04 08:04:27;;;;;;;;;14.00;14.00;;;;;40.74;26.41;100146.91;5049574;28;46149;-80
2023/06/04 08:06:52;;;;;;;;;17.33;16.33;;;;;40.81;26.17;100143.53;5049941;28;46023;-80
2023/06/04 08:09:18;;;;;;;;;16.00;15.67;;;;;41.46;25.68;100140.34;5048156;28;45377;-80
2023/06/04 08:11:44;;;;;;;;;18.00;16.33;;;;;42.37;25.39;100153.34;5055750;28;45475;-80
2023/06/04 08:14:13;;;;;;;;;19.33;17.00;;;;;42.68;23.43;100139.81;5038267;28;45399;-80
2023/06/04 08:16:40;;;;;;;;;16.67;15.00;;;;;40.95;25.09;100141.06;5050142;28;45294;-80
2023/06/04 08:19:07;;;;;;;;;17.00;16.33;;;;;39.89;27.18;100146.41;5045950;28;46863;-81
2023/06/04 08:21:34;;;;;;;;;14.00;14.00;;;;;40.89;25.92;100147.19;5042286;28;45390;-81
2023/06/04 08:24:00;;;;;;;;;13.67;13.67;;;;;41.19;25.13;100149.63;5040427;28;45447;-80
2023/06/04 08:26:26;;;;;;;;;17.67;16.33;;;;;40.64;26.09;100145.25;5036995;28;45467;-80
2023/06/04 08:28:52;;;;;;;;;17.00;15.67;;;;;39.60;26.91;100132.88;5052711;28;45490;-80
2023/06/04 08:31:18;;;;;;;;;16.67;16.33;;;;;38.68;27.93;100147.19;5042071;28;45572;-80
2023/06/04 08:33:47;;;;;;;;;16.33;16.00;;;;;37.81;28.53;100165.19;5051908;28;45985;-80
2023/06/04 08:36:13;;;;;;;;;17.00;16.67;;;;;36.59;29.71;100148.53;5035241;28;45362;-81
2023/06/04 08:38:38;;;;;;;;;18.33;18.33;;;;;35.77;30.94;100161.75;5046619;28;45316;-81
2023/06/04 08:41:28;;;;;;;;;15.67;15.67;;;;;35.14;32.06;100153.19;5042288;28;45608;-80
2023/06/04 08:43:59;;;;;;;;;20.33;19.00;;;;;34.92;32.50;100156.72;5052546;28;45461;-80
2023/06/04 08:46:27;;;;;;;;;20.67;19.00;;;;;34.55;32.84;100152.28;5034742;28;45518;-80
2023/06/04 08:48:56;;;;;;;;;20.67;20.00;;;;;33.93;33.56;100150.59;5045776;28;45593;-80
2023/06/04 08:51:21;;;;;;;;;19.33;19.00;;;;;35.02;33.01;100144.19;5038973;28;45530;-80
2023/06/04 08:53:50;;;;;;;;;19.67;18.67;;;;;36.36;30.70;100149.63;5037626;28;45752;-80
2023/06/04 08:56:17;;;;;;;;;21.67;20.33;;;;;36.81;30.03;100144.00;5050614;28;45573;-80
2023/06/04 08:58:44;;;;;;;;;18.00;17.00;;;;;37.44;28.99;100156.69;5036209;28;45561;-80
2023/06/04 09:01:10;;;;;;;;;20.00;18.33;;;;;37.73;28.68;100154.09;5028376;28;45447;-80
2023/06/04 09:03:37;;;;;;;;;43.50;36.50;;;;;37.23;29.26;100146.72;5051407;28;45700;-80
2023/06/04 09:06:04;;;;;;;;;30.00;28.50;;;;;36.82;30.21;100160.19;5035907;28;45559;-80
2023/06/04 09:08:37;;;;;;;;;20.67;20.00;;;;;36.92;29.00;100156.66;5041123;28;45401;-79
2023/06/04 09:11:09;;;;;;;;;21.00;20.00;;;;;37.76;28.36;100162.88;5036455;28;45452;-80
2023/06/04 09:13:36;;;;;;;;;17.33;17.33;;;;;38.62;27.70;100147.78;5050958;28;45567;-79
2023/06/04 09:16:03;;;;;;;;;1.00;0.00;;;;;38.76;27.32;100161.00;5042308;28;45597;-79
2023/06/04 09:18:29;;;;;;;;;17.33;17.00;;;;;38.86;27.06;100160.97;5043903;28;45253;-80
2023/06/04 09:21:06;;;;;;;;;18.00;18.00;;;;;39.45;26.42;100161.72;5050748;28;45385;-79
2023/06/04 09:23:47;;;;;;;;;18.00;17.00;;;;;39.86;27.44;100160.34;5027862;28;46984;-81
2023/06/04 09:26:13;;;;;;;;;15.00;14.33;;;;;39.47;26.73;100171.47;5038838;28;45522;-79
2023/06/04 09:28:40;;;;;;;;;21.00;18.33;;;;;38.06;28.15;100174.72;5055549;28;45528;-79
2023/06/04 09:31:09;;;;;;;;;17.00;16.67;;;;;37.14;29.39;100167.44;5054240;28;45573;-80
2023/06/04 09:33:53;;;;;;;;;15.67;15.67;;;;;36.95;29.42;100179.06;5036414;28;47500;-80
2023/06/04 09:36:19;;;;;;;;;17.33;17.33;;;;;36.77;30.41;100177.94;5039790;28;45441;-79
2023/06/04 09:38:45;;;;;;;;;20.00;19.00;;;;;36.80;30.67;100183.94;5048484;28;45458;-78
2023/06/04 09:41:12;;;;;;;;;17.67;17.67;;;;;36.48;31.23;100178.50;5049974;28;45320;-80
2023/06/04 09:43:38;;;;;;;;;18.00;17.00;;;;;35.90;31.93;100167.06;5036427;28;46218;-81
2023/06/04 09:46:17;;;;;;;;;22.00;21.00;;;;;35.76;32.42;100192.66;5048858;28;45253;-80
2023/06/04 09:48:44;;;;;;;;;30.75;28.00;;;;;35.38;32.87;100185.72;5048137;28;45533;-79
2023/06/04 09:51:11;;;;;;;;;19.00;19.00;;;;;35.00;33.20;100189.56;5051663;28;45334;-78
2023/06/04 09:53:37;;;;;;;;;20.33;19.33;;;;;34.84;33.64;100187.19;5043900;28;45371;-79
2023/06/04 09:56:04;;;;;;;;;17.00;17.00;;;;;34.84;33.86;100179.03;5040007;28;45502;-78
2023/06/04 09:58:31;;;;;;;;;19.00;18.67;;;;;34.64;33.38;100176.00;5048581;28;45542;-78
2023/06/04 10:00:58;;;;;;;;;18.00;18.00;;;;;34.27;33.68;100191.47;5043553;28;45342;-78
2023/06/04 10:03:27;;;;;;;;;14.67;14.33;;;;;33.86;34.64;100192.66;5039369;28;46758;-79
2023/06/04 10:05:57;;;;;;;;;24.00;22.00;;;;;33.43;35.32;100193.03;5051558;28;45470;-79
2023/06/04 10:08:23;;;;;;;;;21.00;19.00;;;;;33.11;35.72;100168.22;5050838;28;45498;-81
2023/06/04 10:10:56;;;;;;;;;21.67;20.67;;;;;33.24;36.32;100185.34;5042335;28;45838;-81
2023/06/04 10:13:26;;;;;;;;;21.33;19.67;;;;;33.03;37.02;100191.25;5037903;28;45422;-80
2023/06/04 10:15:52;;;;;;;;;20.33;19.33;;;;;32.69;37.45;100171.94;5049358;28;45433;-83
2023/06/04 10:18:19;;;;;;;;;25.33;22.33;;;;;32.97;37.48;100171.84;5049177;28;45867;-81
2023/06/04 10:20:45;;;;;;;;;21.33;21.33;;;;;33.23;36.73;100178.22;5039132;28;45531;-83
2023/06/04 10:23:12;;;;;;;;;23.00;22.33;;;;;33.37;36.96;100191.63;5043165;28;45324;-82
2023/06/04 10:25:38;;;;;;;;;22.00;20.33;;;;;33.09;37.23;100166.50;5041614;28;45615;-82
2023/06/04 10:28:03;;;;;;;;;23.00;21.67;;;;;33.09;37.76;100182.75;5051778;28;45634;-82
2023/06/04 10:30:30;;;;;;;;;24.00;23.33;;;;;32.98;38.64;100188.00;5038919;28;45243;-79
2023/06/04 10:32:59;;;;;;;;;25.67;24.33;;;;;32.83;38.22;100184.53;5044571;28;45683;-81
2023/06/04 10:35:35;;;;;;;;;25.00;24.00;;;;;32.13;39.67;100184.69;5057378;28;45380;-81
2023/06/04 10:38:09;;;;;;;;;24.00;24.00;;;;;31.85;39.20;100161.28;5039715;28;45398;-80
2023/06/04 10:40:37;;;;;;;;;24.00;23.00;;;;;31.90;40.13;100169.97;5057381;28;45716;-80
2023/06/04 10:43:10;;;;;;;;;25.00;23.00;;;;;31.96;39.96;100196.59;5044749;28;45512;-82
2023/06/04 10:45:37;;;;;;;;;26.33;25.00;;;;;31.62;39.99;100187.94;5053547;28;45317;-82
2023/06/04 10:48:04;;;;;;;;;22.33;21.67;;;;;31.42;40.10;100166.72;5037117;28;45329;-82
2023/06/04 10:50:32;;;;;;;;;25.33;22.00;;;;;31.18;40.60;100161.00;5039978;28;45535;-81
2023/06/04 10:52:58;;;;;;;;;30.33;26.00;;;;;31.11;41.37;100188.38;5038760;28;45354;-81
2023/06/04 10:55:25;;;;;;;;;24.00;23.67;;;;;30.95;41.39;100184.00;5053906;28;45469;-81
2023/06/04 10:57:59;;;;;;;;;25.00;23.33;;;;;30.46;42.13;100145.53;5038408;28;45469;-81
2023/06/04 11:00:37;;;;;;;;;25.33;24.33;;;;;30.62;42.78;100185.94;5050939;28;45357;-81
2023/06/04 11:03:06;;;;;;;;;27.33;27.33;;;;;30.59;42.27;100180.69;5039174;28;46097;-81
2023/06/04 11:05:46;;;;;;;;;24.67;22.67;;;;;30.89;41.68;100171.78;5038671;28;45818;-81
2023/06/04 11:08:15;;;;;;;;;27.00;26.67;;;;;31.00;41.09;100177.38;5036725;28;45420;-81
2023/06/04 11:10:45;;;;;;;;;25.67;24.00;;;;;30.90;41.20;100119.56;5039012;28;45477;-81
2023/06/04 11:13:11;;;;;;;;;22.67;22.00;;;;;31.41;41.15;100164.97;5039701;28;46718;-81
2023/06/04 11:15:44;;;;;;;;;24.67;22.00;;;;;31.94;40.51;100181.44;5046492;28;45453;-81
2023/06/04 11:18:17;;;;;;;;;22.67;22.33;;;;;32.05;40.23;100133.00;5046598;28;45291;-81
2023/06/04 11:20:47;;;;;;;;;28.33;25.00;;;;;32.75;38.47;100164.38;5041267;28;45497;-82